createdAt,value
2023-06-24T00:02:24.119Z,79.8
2023-06-24T00:12:23.913Z,80
2023-06-24T00:22:23.880Z,81
2023-06-24T00:32:23.860Z,81
2023-06-24T00:42:23.791Z,81.2
2023-06-24T00:52:23.753Z,81.4
2023-06-24T01:02:23.795Z,81.8
2023-06-24T01:12:23.672Z,81.6
2023-06-24T01:22:23.625Z,81.2
2023-06-24T01:32:23.692Z,81.8
2023-06-24T01:42:23.553Z,81.8
2023-06-24T01:52:23.510Z,82
2023-06-24T02:02:23.510Z,82.2
2023-06-24T02:12:23.443Z,82.4
2023-06-24T02:22:23.413Z,82
2023-06-24T02:32:23.356Z,82.4
2023-06-24T02:42:23.338Z,82
2023-06-24T02:52:23.287Z,82
2023-06-24T03:02:23.270Z,82.4
2023-06-24T03:12:23.231Z,81
2023-06-24T03:22:23.175Z,81.8
2023-06-24T03:32:23.145Z,82.6
2023-06-24T03:42:23.110Z,82.6
2023-06-24T03:52:23.079Z,82
2023-06-24T04:02:23.064Z,82.2
2023-06-24T04:12:23.003Z,82.4
2023-06-24T04:22:22.940Z,81.8
2023-06-24T04:32:22.911Z,82.4
2023-06-24T04:42:22.871Z,82.4
2023-06-24T04:52:22.836Z,82.4
2023-06-24T05:02:22.786Z,82.4
2023-06-24T05:12:22.757Z,82.4
2023-06-24T05:22:22.721Z,82
2023-06-24T05:32:22.702Z,82
2023-06-24T05:42:22.637Z,81.2
2023-06-24T05:52:22.594Z,80.2
2023-06-24T06:02:22.577Z,80
2023-06-24T06:12:22.516Z,79.2
2023-06-24T06:22:22.482Z,78.6
2023-06-24T06:32:22.440Z,78
2023-06-24T06:42:22.419Z,77.2
2023-06-24T06:52:22.390Z,77
2023-06-24T07:02:22.326Z,76.6
2023-06-24T07:12:22.303Z,76.6
2023-06-24T07:22:22.258Z,76.4
2023-06-24T07:32:22.202Z,77.2
2023-06-24T07:42:22.181Z,75.8
2023-06-24T07:52:22.128Z,75.2
2023-06-24T08:02:22.093Z,75
2023-06-24T08:12:22.051Z,74
2023-06-24T08:22:22.051Z,72.8
2023-06-24T08:32:21.963Z,71.2
2023-06-24T08:42:21.932Z,68.8
2023-06-24T08:52:21.899Z,69.4
2023-06-24T09:02:21.857Z,69.4
2023-06-24T09:12:21.817Z,68.6
2023-06-24T09:22:21.776Z,67
2023-06-24T09:32:21.733Z,65.6
2023-06-24T09:42:21.842Z,64.4
2023-06-24T09:52:21.660Z,64
2023-06-24T10:02:21.695Z,60.4
2023-06-24T10:22:21.525Z,61
2023-06-24T10:32:21.497Z,60.6
2023-06-24T10:42:21.443Z,59.4
2023-06-24T10:52:21.426Z,56.4
2023-06-24T11:02:21.380Z,56.2
2023-06-24T11:12:21.339Z,53.8
2023-06-24T11:22:21.298Z,53.6
2023-06-24T11:32:21.252Z,51.4
2023-06-24T11:42:21.207Z,49.4
2023-06-24T11:52:21.188Z,49.8
2023-06-24T12:02:21.143Z,47.6
2023-06-24T12:12:21.089Z,46
2023-06-24T12:22:21.059Z,46.4
2023-06-24T12:32:21.023Z,44
2023-06-24T12:52:20.950Z,42.6
2023-06-24T13:02:20.927Z,43.6
2023-06-24T13:12:20.867Z,42.6
2023-06-24T13:22:20.827Z,41.6
2023-06-24T13:32:20.798Z,41.6
2023-06-24T13:42:20.745Z,41.4
2023-06-24T13:52:20.716Z,42
2023-06-24T14:02:20.686Z,42.6
2023-06-24T14:12:20.641Z,41.6
2023-06-24T14:22:20.608Z,40.8
2023-06-24T14:32:20.554Z,38.6
2023-06-24T14:42:20.568Z,38
2023-06-24T14:52:20.466Z,37.2
2023-06-24T15:02:20.526Z,36.2
2023-06-24T15:12:20.382Z,34.4
2023-06-24T15:22:20.367Z,34.8
2023-06-24T15:32:20.322Z,32.2
2023-06-24T15:42:20.276Z,32.2
2023-06-24T15:52:20.239Z,31.2
2023-06-24T16:02:20.205Z,30.2
2023-06-24T16:12:20.174Z,28.8
2023-06-24T16:22:20.181Z,29.4
2023-06-24T16:32:20.100Z,30.4
2023-06-24T16:42:20.055Z,30.8
2023-06-24T16:52:20.000Z,30.4
2023-06-24T17:02:19.974Z,30.8
2023-06-24T17:12:19.940Z,30.6
2023-06-24T17:22:19.904Z,31.2
2023-06-24T17:32:19.924Z,32.4
2023-06-24T17:42:19.814Z,32.2
2023-06-24T17:52:19.775Z,32.4
2023-06-24T18:02:19.753Z,31.8
2023-06-24T18:12:19.684Z,32.6
2023-06-24T18:22:19.652Z,32.6
2023-06-24T18:32:19.649Z,33.8
2023-06-24T18:42:19.584Z,37.8
2023-06-24T18:52:19.546Z,42.2
2023-06-24T19:02:19.506Z,43
2023-06-24T19:12:19.549Z,43.2
2023-06-24T19:22:19.427Z,44.6
2023-06-24T19:32:19.384Z,46.2
2023-06-24T19:42:19.388Z,48.2
2023-06-24T19:52:19.292Z,50
2023-06-24T20:02:19.253Z,51.2
2023-06-24T20:12:19.252Z,53.4
2023-06-24T20:22:19.194Z,54.8
2023-06-24T20:32:19.152Z,55
2023-06-24T20:42:19.106Z,56.4
2023-06-24T20:52:19.095Z,57.4
2023-06-24T21:02:19.154Z,57.8
2023-06-24T21:12:18.960Z,58
2023-06-24T21:22:18.948Z,58.6
2023-06-24T21:32:18.899Z,59.2
2023-06-24T21:42:18.875Z,59.8
2023-06-24T21:52:18.814Z,60.6
2023-06-24T22:02:18.798Z,61
2023-06-24T22:12:18.737Z,61.6
2023-06-24T22:22:18.725Z,62
2023-06-24T22:32:18.660Z,62
2023-06-24T22:42:18.616Z,62.4
2023-06-24T22:52:18.590Z,62.8
2023-06-24T23:02:18.698Z,62.8
2023-06-24T23:12:18.525Z,63.6
2023-06-24T23:22:18.462Z,64.2
2023-06-24T23:32:18.434Z,64.4
2023-06-24T23:42:18.394Z,64.4
2023-06-24T23:52:18.349Z,64.4
